CWI115 LHDC-LHBP
Flight info
| Callsign | CWI115 |
|---|---|
| Flight time | 0h 33m |
| Altitude | 18000 |
| Route | PERIT DCT RIGSA DCT BETED |
| Aircraft | B738/M-SDE2E3FGHIRWXY/LB1 |
Departure
| Time | 2026-05-06 16:24 |
|---|---|
| Airport | Debrecen International Airport (LHDC) |
Arrival
| Time | 2026-05-06 16:58 |
|---|---|
| Airport | Budapest Liszt Ferenc International Airport (LHBP) |
| Time | Latitude | Longitude | Altitude | Speed | Heading |
|---|---|---|---|---|---|
| 2026-05-06 16:06 | 47.49013 | 21.60752 | 366 ft | 0 kts | 99° |
| 2026-05-06 16:16 | 47.49012 | 21.60754 | 366 ft | 1 kts | 99° |
| 2026-05-06 16:16 | 47.49018 | 21.60832 | 369 ft | 10 kts | 66° |
| 2026-05-06 16:17 | 47.49053 | 21.60913 | 368 ft | 9 kts | 54° |
| 2026-05-06 16:17 | 47.49092 | 21.60989 | 367 ft | 9 kts | 52° |
| 2026-05-06 16:17 | 47.49130 | 21.61062 | 366 ft | 9 kts | 53° |
| 2026-05-06 16:17 | 47.49165 | 21.61134 | 368 ft | 9 kts | 54° |
| 2026-05-06 16:18 | 47.49201 | 21.61205 | 371 ft | 10 kts | 53° |
| 2026-05-06 16:18 | 47.49261 | 21.61279 | 366 ft | 12 kts | 39° |
| 2026-05-06 16:18 | 47.49325 | 21.61353 | 367 ft | 12 kts | 37° |
| 2026-05-06 16:18 | 47.49387 | 21.61424 | 370 ft | 11 kts | 37° |
| 2026-05-06 16:19 | 47.49448 | 21.61493 | 366 ft | 11 kts | 37° |
| 2026-05-06 16:19 | 47.49507 | 21.61561 | 366 ft | 11 kts | 38° |
| 2026-05-06 16:19 | 47.49580 | 21.61645 | 368 ft | 20 kts | 38° |
| 2026-05-06 16:19 | 47.49672 | 21.61800 | 371 ft | 20 kts | 56° |
| 2026-05-06 16:20 | 47.49744 | 21.61971 | 366 ft | 19 kts | 57° |
| 2026-05-06 16:20 | 47.49815 | 21.62133 | 366 ft | 19 kts | 58° |
| 2026-05-06 16:20 | 47.49873 | 21.62270 | 368 ft | 14 kts | 58° |
| 2026-05-06 16:20 | 47.49904 | 21.62367 | 368 ft | 8 kts | 89° |
| 2026-05-06 16:21 | 47.49878 | 21.62436 | 367 ft | 8 kts | 132° |
| 2026-05-06 16:21 | 47.49816 | 21.62523 | 367 ft | 16 kts | 138° |
| 2026-05-06 16:21 | 47.49738 | 21.62628 | 368 ft | 13 kts | 138° |
| 2026-05-06 16:21 | 47.49717 | 21.62654 | 366 ft | 0 kts | 138° |
| 2026-05-06 16:22 | 47.49717 | 21.62655 | 366 ft | 1 kts | 138° |
| 2026-05-06 16:23 | 47.49658 | 21.62714 | 366 ft | 12 kts | 169° |
| 2026-05-06 16:23 | 47.49586 | 21.62664 | 371 ft | 12 kts | 222° |
| 2026-05-06 16:23 | 47.49353 | 21.62287 | 368 ft | 95 kts | 227° |
| 2026-05-06 16:23 | 47.48716 | 21.61263 | 411 ft | 170 kts | 227° |
| 2026-05-06 16:24 | 47.47843 | 21.59757 | 817 ft | 213 kts | 229° |
| 2026-05-06 16:24 | 47.46807 | 21.58042 | 1612 ft | 225 kts | 225° |
| 2026-05-06 16:24 | 47.45763 | 21.56396 | 2963 ft | 209 kts | 224° |
| 2026-05-06 16:24 | 47.44642 | 21.55322 | 4221 ft | 189 kts | 192° |
| 2026-05-06 16:25 | 47.43339 | 21.55562 | 4881 ft | 202 kts | 155° |
| 2026-05-06 16:25 | 47.42289 | 21.57126 | 5081 ft | 232 kts | 119° |
| 2026-05-06 16:25 | 47.41916 | 21.59583 | 5307 ft | 263 kts | 90° |
| 2026-05-06 16:25 | 47.42535 | 21.62221 | 5646 ft | 285 kts | 52° |
| 2026-05-06 16:26 | 47.44100 | 21.63940 | 6309 ft | 290 kts | 19° |
| 2026-05-06 16:26 | 47.46066 | 21.64633 | 7044 ft | 290 kts | 12° |
| 2026-05-06 16:26 | 47.48019 | 21.65498 | 7675 ft | 293 kts | 19° |
| 2026-05-06 16:26 | 47.49931 | 21.66603 | 7995 ft | 296 kts | 22° |
| 2026-05-06 16:27 | 47.51823 | 21.67807 | 7983 ft | 300 kts | 23° |
| 2026-05-06 16:27 | 47.53731 | 21.69041 | 7989 ft | 297 kts | 20° |
| 2026-05-06 16:27 | 47.55752 | 21.69470 | 7995 ft | 293 kts | 349° |
| 2026-05-06 16:27 | 47.57733 | 21.68817 | 7999 ft | 292 kts | 345° |
| 2026-05-06 16:28 | 47.59703 | 21.68177 | 8004 ft | 293 kts | 346° |
| 2026-05-06 16:28 | 47.61692 | 21.67560 | 8237 ft | 288 kts | 346° |
| 2026-05-06 16:28 | 47.63659 | 21.66955 | 8679 ft | 294 kts | 346° |
| 2026-05-06 16:28 | 47.65684 | 21.66332 | 9343 ft | 299 kts | 346° |
| 2026-05-06 16:29 | 47.67739 | 21.65701 | 10106 ft | 302 kts | 346° |
| 2026-05-06 16:29 | 47.69842 | 21.65054 | 10485 ft | 319 kts | 346° |
| 2026-05-06 16:29 | 47.72108 | 21.64355 | 10671 ft | 343 kts | 346° |
| 2026-05-06 16:29 | 47.74520 | 21.63612 | 10835 ft | 364 kts | 346° |
| 2026-05-06 16:30 | 47.77050 | 21.62733 | 11031 ft | 381 kts | 339° |
| 2026-05-06 16:30 | 47.78622 | 21.61553 | 11282 ft | 383 kts | 321° |
| 2026-05-06 16:30 | 47.80953 | 21.57662 | 12164 ft | 380 kts | 300° |
| 2026-05-06 16:30 | 47.82368 | 21.54308 | 12831 ft | 384 kts | 300° |
| 2026-05-06 16:31 | 47.83813 | 21.50939 | 13515 ft | 387 kts | 300° |
| 2026-05-06 16:31 | 47.85279 | 21.47538 | 14154 ft | 391 kts | 300° |
| 2026-05-06 16:31 | 47.86739 | 21.44163 | 14760 ft | 395 kts | 301° |
| 2026-05-06 16:31 | 47.88239 | 21.40703 | 15401 ft | 399 kts | 301° |
| 2026-05-06 16:32 | 47.89755 | 21.37211 | 16038 ft | 402 kts | 301° |
| 2026-05-06 16:32 | 47.91284 | 21.33689 | 16683 ft | 405 kts | 301° |
| 2026-05-06 16:32 | 47.92820 | 21.30149 | 17304 ft | 409 kts | 301° |
| 2026-05-06 16:32 | 47.94374 | 21.26561 | 17854 ft | 414 kts | 301° |
| 2026-05-06 16:33 | 47.95945 | 21.22928 | 17885 ft | 423 kts | 301° |
| 2026-05-06 16:33 | 47.97556 | 21.19198 | 17903 ft | 433 kts | 301° |
| 2026-05-06 16:33 | 47.99198 | 21.15391 | 17899 ft | 436 kts | 301° |
| 2026-05-06 16:34 | 48.02465 | 21.07810 | 17895 ft | 433 kts | 301° |
| 2026-05-06 16:34 | 48.04091 | 21.04029 | 17893 ft | 432 kts | 300° |
| 2026-05-06 16:34 | 48.05714 | 21.00245 | 17888 ft | 432 kts | 300° |
| 2026-05-06 16:34 | 48.07337 | 20.96458 | 17884 ft | 433 kts | 300° |
| 2026-05-06 16:35 | 48.08961 | 20.92660 | 17889 ft | 433 kts | 300° |
| 2026-05-06 16:35 | 48.10583 | 20.88864 | 17888 ft | 434 kts | 300° |
| 2026-05-06 16:35 | 48.12209 | 20.85053 | 17888 ft | 434 kts | 300° |
| 2026-05-06 16:35 | 48.13815 | 20.81283 | 17885 ft | 435 kts | 300° |
| 2026-05-06 16:36 | 48.15210 | 20.77290 | 17867 ft | 431 kts | 287° |
| 2026-05-06 16:36 | 48.15770 | 20.72922 | 17903 ft | 426 kts | 270° |
| 2026-05-06 16:36 | 48.15515 | 20.68525 | 17895 ft | 422 kts | 256° |
| 2026-05-06 16:36 | 48.14795 | 20.64265 | 17899 ft | 422 kts | 254° |
| 2026-05-06 16:37 | 48.14087 | 20.59991 | 17884 ft | 422 kts | 254° |
| 2026-05-06 16:37 | 48.13399 | 20.55708 | 17877 ft | 422 kts | 255° |
| 2026-05-06 16:37 | 48.12726 | 20.51426 | 17895 ft | 422 kts | 255° |
| 2026-05-06 16:37 | 48.12068 | 20.47203 | 17884 ft | 422 kts | 255° |
| 2026-05-06 16:38 | 48.11402 | 20.42916 | 17897 ft | 421 kts | 255° |
| 2026-05-06 16:38 | 48.10736 | 20.38638 | 17884 ft | 422 kts | 255° |
| 2026-05-06 16:38 | 48.10069 | 20.34367 | 17894 ft | 422 kts | 255° |
| 2026-05-06 16:38 | 48.09398 | 20.30088 | 17898 ft | 422 kts | 255° |
| 2026-05-06 16:39 | 48.08722 | 20.25816 | 17886 ft | 422 kts | 253° |
| 2026-05-06 16:39 | 48.07694 | 20.21762 | 17832 ft | 412 kts | 237° |
| 2026-05-06 16:39 | 48.05981 | 20.18528 | 17663 ft | 394 kts | 227° |
| 2026-05-06 16:39 | 48.04254 | 20.15362 | 17384 ft | 393 kts | 231° |
| 2026-05-06 16:40 | 48.02621 | 20.12069 | 17135 ft | 395 kts | 233° |
| 2026-05-06 16:40 | 48.01005 | 20.08725 | 16868 ft | 395 kts | 233° |
| 2026-05-06 16:40 | 47.99398 | 20.05401 | 16134 ft | 396 kts | 233° |
| 2026-05-06 16:40 | 47.97786 | 20.02100 | 15536 ft | 390 kts | 232° |
| 2026-05-06 16:41 | 47.96180 | 19.98842 | 14897 ft | 386 kts | 232° |
| 2026-05-06 16:41 | 47.94612 | 19.95681 | 14367 ft | 380 kts | 232° |
| 2026-05-06 16:41 | 47.93046 | 19.92537 | 13975 ft | 372 kts | 232° |
| 2026-05-06 16:41 | 47.91524 | 19.89486 | 13703 ft | 362 kts | 232° |
| 2026-05-06 16:42 | 47.90016 | 19.86472 | 13431 ft | 363 kts | 232° |
| 2026-05-06 16:42 | 47.88521 | 19.83483 | 13134 ft | 354 kts | 232° |
| 2026-05-06 16:42 | 47.87089 | 19.80621 | 13149 ft | 336 kts | 232° |
| 2026-05-06 16:42 | 47.85722 | 19.77891 | 13094 ft | 321 kts | 231° |
| 2026-05-06 16:43 | 47.84405 | 19.75269 | 12961 ft | 310 kts | 231° |
| 2026-05-06 16:43 | 47.83143 | 19.72777 | 12807 ft | 300 kts | 229° |
| 2026-05-06 16:43 | 47.81730 | 19.70561 | 12619 ft | 290 kts | 221° |
| 2026-05-06 16:43 | 47.80240 | 19.68561 | 12347 ft | 286 kts | 220° |
| 2026-05-06 16:44 | 47.78762 | 19.66619 | 12118 ft | 281 kts | 220° |
| 2026-05-06 16:44 | 47.77315 | 19.64697 | 11882 ft | 277 kts | 220° |
| 2026-05-06 16:44 | 47.75889 | 19.62781 | 11651 ft | 275 kts | 221° |
| 2026-05-06 16:44 | 47.74498 | 19.60892 | 11418 ft | 273 kts | 221° |
| 2026-05-06 16:45 | 47.73200 | 19.59121 | 11201 ft | 273 kts | 221° |
| 2026-05-06 16:45 | 47.71799 | 19.57206 | 10968 ft | 272 kts | 221° |
| 2026-05-06 16:45 | 47.70411 | 19.55308 | 10735 ft | 270 kts | 221° |
| 2026-05-06 16:45 | 47.69028 | 19.53419 | 10511 ft | 270 kts | 221° |
| 2026-05-06 16:46 | 47.67655 | 19.51544 | 10360 ft | 266 kts | 221° |
| 2026-05-06 16:46 | 47.66296 | 19.49690 | 10132 ft | 263 kts | 221° |
| 2026-05-06 16:46 | 47.65222 | 19.48224 | 9970 ft | 260 kts | 221° |
| 2026-05-06 16:46 | 47.63898 | 19.46419 | 9738 ft | 256 kts | 221° |
| 2026-05-06 16:47 | 47.62588 | 19.44638 | 9518 ft | 253 kts | 221° |
| 2026-05-06 16:47 | 47.61288 | 19.42875 | 9300 ft | 252 kts | 221° |
| 2026-05-06 16:47 | 47.59953 | 19.41079 | 8557 ft | 268 kts | 221° |
| 2026-05-06 16:47 | 47.58546 | 19.39212 | 7839 ft | 281 kts | 221° |
| 2026-05-06 16:48 | 47.57051 | 19.37245 | 7125 ft | 292 kts | 221° |
| 2026-05-06 16:48 | 47.55610 | 19.35361 | 6442 ft | 293 kts | 221° |
| 2026-05-06 16:48 | 47.54080 | 19.33372 | 5683 ft | 292 kts | 220° |
| 2026-05-06 16:48 | 47.52733 | 19.31117 | 4931 ft | 294 kts | 239° |
| 2026-05-06 16:49 | 47.52164 | 19.28223 | 4383 ft | 294 kts | 269° |
| 2026-05-06 16:49 | 47.52632 | 19.25428 | 4475 ft | 272 kts | 294° |
| 2026-05-06 16:49 | 47.53746 | 19.23284 | 4529 ft | 252 kts | 305° |
| 2026-05-06 16:49 | 47.54650 | 19.21260 | 4541 ft | 229 kts | 300° |
| 2026-05-06 16:50 | 47.55718 | 19.19621 | 4547 ft | 211 kts | 312° |
| 2026-05-06 16:50 | 47.56465 | 19.17941 | 4509 ft | 186 kts | 283° |
| 2026-05-06 16:50 | 47.57373 | 19.16462 | 4364 ft | 223 kts | 336° |
| 2026-05-06 16:50 | 47.58398 | 19.16174 | 4402 ft | 227 kts | 354° |
| 2026-05-06 16:51 | 47.60389 | 19.15723 | 4259 ft | 205 kts | 327° |
| 2026-05-06 16:51 | 47.61278 | 19.14298 | 4066 ft | 183 kts | 288° |
| 2026-05-06 16:51 | 47.61619 | 19.12501 | 4057 ft | 180 kts | 270° |
| 2026-05-06 16:51 | 47.61559 | 19.10669 | 4014 ft | 176 kts | 258° |
| 2026-05-06 16:52 | 47.61405 | 19.08877 | 3994 ft | 172 kts | 258° |
| 2026-05-06 16:52 | 47.61253 | 19.07158 | 3982 ft | 168 kts | 255° |
| 2026-05-06 16:52 | 47.60776 | 19.05653 | 3995 ft | 160 kts | 220° |
| 2026-05-06 16:52 | 47.59774 | 19.05079 | 4004 ft | 156 kts | 186° |
| 2026-05-06 16:53 | 47.58679 | 19.04960 | 3771 ft | 160 kts | 188° |
| 2026-05-06 16:53 | 47.57657 | 19.04875 | 3767 ft | 145 kts | 177° |
| 2026-05-06 16:53 | 47.56698 | 19.05341 | 3661 ft | 147 kts | 167° |
| 2026-05-06 16:53 | 47.55714 | 19.05760 | 3480 ft | 146 kts | 165° |
| 2026-05-06 16:54 | 47.54930 | 19.06727 | 3296 ft | 152 kts | 128° |
| 2026-05-06 16:54 | 47.54343 | 19.08072 | 3074 ft | 157 kts | 133° |
| 2026-05-06 16:54 | 47.53676 | 19.09338 | 2877 ft | 154 kts | 140° |
| 2026-05-06 16:54 | 47.52937 | 19.10465 | 2687 ft | 152 kts | 143° |
| 2026-05-06 16:55 | 47.52133 | 19.11440 | 2493 ft | 151 kts | 149° |
| 2026-05-06 16:55 | 47.51337 | 19.12469 | 2292 ft | 153 kts | 138° |
| 2026-05-06 16:55 | 47.50645 | 19.13665 | 2074 ft | 153 kts | 138° |
| 2026-05-06 16:55 | 47.49890 | 19.14748 | 1877 ft | 150 kts | 149° |
| 2026-05-06 16:56 | 47.49073 | 19.15725 | 1677 ft | 151 kts | 148° |
| 2026-05-06 16:56 | 47.48262 | 19.16711 | 1460 ft | 150 kts | 146° |
| 2026-05-06 16:56 | 47.47517 | 19.17793 | 1299 ft | 151 kts | 137° |
| 2026-05-06 16:56 | 47.46815 | 19.18931 | 1082 ft | 151 kts | 139° |
| 2026-05-06 16:57 | 47.46110 | 19.20071 | 857 ft | 148 kts | 137° |
| 2026-05-06 16:57 | 47.45438 | 19.21208 | 683 ft | 149 kts | 138° |
| 2026-05-06 16:57 | 47.44746 | 19.22312 | 480 ft | 141 kts | 135° |
| 2026-05-06 16:57 | 47.44188 | 19.23192 | 452 ft | 57 kts | 133° |
| 2026-05-06 16:58 | 47.44141 | 19.23265 | 452 ft | 0 kts | 133° |
| 2026-05-06 16:58 | 47.44140 | 19.23267 | 452 ft | 2 kts | 133° |
| 2026-05-06 16:58 | 47.44023 | 19.23455 | 453 ft | 44 kts | 130° |
| 2026-05-06 16:58 | 47.43825 | 19.23777 | 454 ft | 41 kts | 133° |
| 2026-05-06 16:59 | 47.43696 | 19.24122 | 453 ft | 34 kts | 103° |
| 2026-05-06 16:59 | 47.43658 | 19.24346 | 454 ft | 19 kts | 109° |
| 2026-05-06 16:59 | 47.43608 | 19.24509 | 456 ft | 16 kts | 122° |
| 2026-05-06 16:59 | 47.43546 | 19.24630 | 456 ft | 13 kts | 129° |
| 2026-05-06 17:00 | 47.43487 | 19.24725 | 456 ft | 13 kts | 132° |
| 2026-05-06 17:00 | 47.43409 | 19.24852 | 456 ft | 20 kts | 132° |
| 2026-05-06 17:00 | 47.43303 | 19.25024 | 456 ft | 23 kts | 131° |
| 2026-05-06 17:00 | 47.43244 | 19.25222 | 455 ft | 21 kts | 67° |
| 2026-05-06 17:01 | 47.43325 | 19.25359 | 456 ft | 9 kts | 47° |
| 2026-05-06 17:01 | 47.43328 | 19.25452 | 454 ft | 12 kts | 116° |
| 2026-05-06 17:01 | 47.43314 | 19.25586 | 456 ft | 14 kts | 47° |
| 2026-05-06 17:01 | 47.43385 | 19.25681 | 456 ft | 13 kts | 42° |
| 2026-05-06 17:02 | 47.43413 | 19.25718 | 456 ft | 0 kts | 38° |
| 2026-05-06 17:02 | 47.43416 | 19.25722 | 456 ft | 3 kts | 38° |
| 2026-05-06 17:02 | 47.43430 | 19.25724 | 456 ft | 4 kts | 354° |
| 2026-05-06 17:02 | 47.43455 | 19.25701 | 456 ft | 5 kts | 312° |
| 2026-05-06 17:03 | 47.43463 | 19.25689 | 456 ft | 0 kts | 312° |